Time;durP1;ratioP1;P1;durP2;ratioP2;P2;SDS_P1;SDS_P2;PMS_P1;PMS_P2;Temp;Humidity;BMP_temperature;BMP_pressure;BME280_temperature;BME280_humidity;BME280_pressure;Samples;Min_cycle;Max_cycle;Signal;HPM_P1;HPM_P2
2023/12/30 00:01:35;;;;;;;21.67;12.60;;;6.80;99.90;;;;;;5072896;28;20531;-77
2023/12/30 00:04:01;;;;;;;12.23;3.23;;;6.90;99.90;;;;;;5072820;28;20166;-73
2023/12/30 00:06:26;;;;;;;14.37;3.73;;;6.80;99.90;;;;;;5071106;28;20530;-73
2023/12/30 00:08:52;;;;;;;10.60;3.00;;;6.90;99.90;;;;;;5068489;28;20429;-71
2023/12/30 00:11:18;;;;;;;7.80;3.00;;;6.90;99.90;;;;;;5053086;28;20256;-70
2023/12/30 00:13:43;;;;;;;5.07;2.97;;;6.90;99.90;;;;;;5052682;28;20175;-71
2023/12/30 00:16:10;;;;;;;13.37;2.80;;;6.80;99.90;;;;;;5052216;28;20224;-71
2023/12/30 00:18:36;;;;;;;8.13;3.80;;;6.80;99.90;;;;;;5052305;28;20207;-70
2023/12/30 00:21:02;;;;;;;2.90;2.30;;;6.80;99.90;;;;;;5052512;28;20405;-77
2023/12/30 00:23:28;;;;;;;6.33;3.00;;;6.80;99.90;;;;;;5054583;28;20454;-77
2023/12/30 00:25:54;;;;;;;6.13;2.90;;;6.80;99.90;;;;;;5072050;28;20178;-70
2023/12/30 00:28:21;;;;;;;8.37;3.23;;;6.70;99.90;;;;;;5072783;28;20178;-76
2023/12/30 00:30:47;;;;;;;3.00;2.30;;;6.70;99.90;;;;;;5072710;28;20813;-73
2023/12/30 00:33:13;;;;;;;9.83;3.10;;;6.60;99.90;;;;;;5071452;28;20405;-77
2023/12/30 00:35:39;;;;;;;13.43;3.20;;;6.60;99.90;;;;;;5055897;28;20409;-71
2023/12/30 00:38:04;;;;;;;4.43;2.30;;;6.60;99.90;;;;;;5051703;28;20725;-70
2023/12/30 00:40:30;;;;;;;5.27;2.40;;;6.60;99.90;;;;;;5052384;28;20174;-71
2023/12/30 00:42:56;;;;;;;3.93;3.53;;;6.60;99.90;;;;;;5051406;28;20409;-70
2023/12/30 00:45:21;;;;;;;5.10;2.33;;;6.70;99.90;;;;;;5051836;28;20216;-71
2023/12/30 00:47:47;;;;;;;9.50;2.83;;;6.60;99.90;;;;;;5051570;28;20678;-74
2023/12/30 00:50:13;;;;;;;11.93;3.60;;;6.60;99.90;;;;;;5052125;28;20193;-70
2023/12/30 00:52:39;;;;;;;12.30;2.77;;;6.60;99.90;;;;;;5052584;28;20170;-78
2023/12/30 00:55:04;;;;;;;9.73;2.53;;;6.60;99.90;;;;;;5066764;28;20197;-70
2023/12/30 00:57:30;;;;;;;9.20;3.37;;;6.50;99.90;;;;;;5075191;28;20264;-69
2023/12/30 00:59:56;;;;;;;9.43;3.07;;;6.40;99.90;;;;;;5074965;28;20765;-76
2023/12/30 01:02:21;;;;;;;4.60;2.20;;;6.40;99.90;;;;;;5072395;28;20166;-76
2023/12/30 01:04:47;;;;;;;7.47;2.60;;;6.40;99.90;;;;;;5037292;28;20266;-73
2023/12/30 01:07:13;;;;;;;3.73;2.47;;;6.30;1.00;;;;;;5035860;28;20171;-70
2023/12/30 01:09:39;;;;;;;7.83;2.47;;;6.30;1.00;;;;;;5050600;28;20486;-71
2023/12/30 01:12:05;;;;;;;26.70;14.90;;;6.20;1.00;;;;;;5055029;28;20178;-73
2023/12/30 01:14:31;;;;;;;4.43;2.70;;;6.20;1.00;;;;;;5055433;28;20171;-76
2023/12/30 01:16:56;;;;;;;8.47;3.10;;;6.10;1.00;;;;;;5055894;28;20967;-75
2023/12/30 01:19:23;;;;;;;5.57;2.20;;;6.10;1.00;;;;;;5055404;28;20177;-75
2023/12/30 01:21:49;;;;;;;3.70;2.27;;;6.10;1.00;;;;;;5054636;28;20175;-70
2023/12/30 01:24:15;;;;;;;4.33;3.17;;;6.10;1.00;;;;;;5068248;28;20417;-70
2023/12/30 01:26:41;;;;;;;4.27;2.43;;;5.90;1.00;;;;;;5074599;28;20181;-75
2023/12/30 01:29:07;;;;;;;3.57;2.73;;;6.00;1.00;;;;;;5074518;28;20801;-74
2023/12/30 01:31:34;;;;;;;3.40;2.30;;;6.00;1.00;;;;;;5063122;28;20249;-71
2023/12/30 01:34:00;;;;;;;2.80;2.60;;;5.90;1.00;;;;;;5055535;28;20399;-75
2023/12/30 01:36:25;;;;;;;3.20;2.30;;;5.90;1.00;;;;;;5054282;28;20407;-75
2023/12/30 01:38:51;;;;;;;4.03;2.70;;;5.90;1.00;;;;;;5065673;28;20433;-75
2023/12/30 01:41:19;;;;;;;6.70;1.93;;;5.80;1.00;;;;;;5075655;28;20257;-71
2023/12/30 01:43:44;;;;;;;3.50;2.27;;;5.80;1.00;;;;;;5075529;28;20218;-76
2023/12/30 01:46:11;;;;;;;5.33;1.70;;;5.80;1.00;;;;;;5073073;28;20795;-71
2023/12/30 01:48:37;;;;;;;2.70;2.50;;;5.80;1.00;;;;;;5075228;28;20186;-74
2023/12/30 01:51:07;;;;;;;4.37;1.80;;;5.80;1.00;;;;;;5074982;28;20746;-75
2023/12/30 01:53:35;;;;;;;4.23;1.40;;;5.80;1.00;;;;;;5067127;28;20580;-75
2023/12/30 01:56:01;;;;;;;4.97;1.63;;;5.70;1.00;;;;;;5053545;28;20512;-75
2023/12/30 01:58:27;;;;;;;1.83;1.67;;;5.70;1.00;;;;;;5055202;28;20521;-74
2023/12/30 02:00:55;;;;;;;2.60;1.90;;;5.60;1.00;;;;;;5055238;28;20428;-70
2023/12/30 02:03:22;;;;;;;2.50;1.70;;;5.60;1.00;;;;;;5053576;28;20417;-71
2023/12/30 02:05:48;;;;;;;2.90;2.03;;;5.50;1.00;;;;;;5056036;28;20416;-71
2023/12/30 02:08:17;;;;;;;3.43;1.80;;;5.50;1.00;;;;;;5073088;28;20446;-70
2023/12/30 02:10:43;;;;;;;3.63;2.30;;;5.40;1.00;;;;;;5073578;28;20510;-74
2023/12/30 02:13:09;;;;;;;2.00;1.90;;;5.40;1.00;;;;;;5059310;28;20414;-69
2023/12/30 02:15:35;;;;;;;2.80;1.90;;;5.30;1.00;;;;;;5053815;28;20479;-75
2023/12/30 02:18:01;;;;;;;2.07;1.83;;;5.30;1.00;;;;;;5054916;28;20473;-74
2023/12/30 02:20:28;;;;;;;2.70;2.50;;;5.30;1.00;;;;;;5068562;28;20450;-71
2023/12/30 02:22:53;;;;;;;2.80;1.50;;;5.30;1.00;;;;;;5073517;28;20460;-73
2023/12/30 02:25:19;;;;;;;1.80;1.70;;;5.20;1.00;;;;;;5072707;28;20424;-70
2023/12/30 02:27:45;;;;;;;2.67;1.30;;;5.20;1.00;;;;;;5074298;28;20692;-74
2023/12/30 02:30:12;;;;;;;8.00;1.60;;;5.10;1.00;;;;;;5074452;28;20444;-71
2023/12/30 02:32:38;;;;;;;1.93;1.77;;;5.00;1.00;;;;;;5074568;28;20410;-70
2023/12/30 02:35:04;;;;;;;2.23;2.10;;;4.90;1.00;;;;;;5060087;28;20436;-68
2023/12/30 02:37:30;;;;;;;1.60;1.50;;;4.90;1.00;;;;;;5054432;28;20608;-69
2023/12/30 02:39:56;;;;;;;2.80;1.77;;;4.90;1.00;;;;;;5053774;28;20435;-67
2023/12/30 02:42:21;;;;;;;1.77;1.67;;;4.90;1.00;;;;;;5054565;28;20204;-70
2023/12/30 02:44:47;;;;;;;1.40;1.30;;;4.80;1.00;;;;;;5052996;28;20200;-70
2023/12/30 02:47:13;;;;;;;1.40;1.30;;;4.90;1.00;;;;;;5054395;28;20181;-71
2023/12/30 02:49:42;;;;;;;3.90;2.03;;;4.90;1.00;;;;;;5054097;28;20802;-71
2023/12/30 02:52:08;;;;;;;1.80;1.70;;;4.90;1.00;;;;;;5053059;28;20180;-69
2023/12/30 02:54:35;;;;;;;3.90;1.67;;;4.90;14.90;;;;;;5063248;28;20419;-72
2023/12/30 02:57:02;;;;;;;3.87;1.90;;;5.00;28.60;;;;;;5055318;28;20172;-70
2023/12/30 02:59:28;;;;;;;1.70;1.60;;;4.90;28.50;;;;;;5033650;28;20417;-70
2023/12/30 03:01:54;;;;;;;1.80;1.70;;;4.90;37.10;;;;;;5037485;28;20823;-69
2023/12/30 03:04:20;;;;;;;2.13;1.47;;;4.90;34.40;;;;;;5052684;28;20521;-68
2023/12/30 03:06:46;;;;;;;1.60;1.50;;;4.80;28.40;;;;;;5053171;28;20754;-67
2023/12/30 03:09:11;;;;;;;5.73;2.23;;;4.80;28.40;;;;;;5058680;28;20202;-69
2023/12/30 03:11:37;;;;;;;2.03;1.93;;;4.80;28.50;;;;;;5073874;28;20160;-71
2023/12/30 03:14:03;;;;;;;4.53;1.87;;;4.80;28.40;;;;;;5073599;28;20391;-67
2023/12/30 03:16:29;;;;;;;1.80;1.70;;;4.80;28.40;;;;;;5072114;28;20411;-70
2023/12/30 03:18:55;;;;;;;2.23;2.03;;;4.90;33.80;;;;;;5072781;28;20190;-69
2023/12/30 03:21:21;;;;;;;2.10;2.00;;;4.80;28.40;;;;;;5068125;28;20627;-69
2023/12/30 03:23:47;;;;;;;4.17;1.90;;;4.80;21.50;;;;;;5053458;28;20402;-69
2023/12/30 03:26:12;;;;;;;1.83;1.50;;;4.80;22.70;;;;;;5072228;28;20215;-71
2023/12/30 03:28:38;;;;;;;2.17;2.07;;;4.90;20.10;;;;;;5073428;28;21112;-67
2023/12/30 03:31:06;;;;;;;1.87;1.77;;;4.90;14.30;;;;;;5072996;28;20509;-66
2023/12/30 03:33:32;;;;;;;3.80;2.17;;;4.90;3.80;;;;;;5073597;28;20523;-70
2023/12/30 03:35:58;;;;;;;3.20;2.00;;;4.90;8.70;;;;;;5072318;28;20407;-68
2023/12/30 03:38:24;;;;;;;7.13;2.03;;;4.90;6.00;;;;;;5072840;28;20454;-70
2023/12/30 03:40:50;;;;;;;1.90;1.70;;;5.00;3.10;;;;;;5058531;28;20456;-70
2023/12/30 03:43:16;;;;;;;5.17;2.17;;;4.90;3.70;;;;;;5053375;28;20394;-68
2023/12/30 03:45:42;;;;;;;4.37;2.20;;;5.00;6.40;;;;;;5052605;28;20968;-70
2023/12/30 03:48:08;;;;;;;3.20;2.00;;;5.00;8.70;;;;;;5052769;28;20512;-66
2023/12/30 03:50:36;;;;;;;6.03;2.27;;;5.00;15.60;;;;;;5051889;28;20202;-67
2023/12/30 03:53:02;;;;;;;5.60;2.93;;;5.00;13.00;;;;;;5052585;28;20459;-70
2023/12/30 03:55:28;;;;;;;3.30;2.43;;;5.00;19.50;;;;;;5052891;28;20406;-66
2023/12/30 03:57:54;;;;;;;7.47;2.47;;;5.00;28.60;;;;;;5052042;28;20427;-70
2023/12/30 04:00:20;;;;;;;4.37;2.30;;;5.00;28.60;;;;;;5052955;28;20177;-70
2023/12/30 04:02:47;;;;;;;4.47;2.10;;;4.90;28.60;;;;;;5053270;28;20182;-69
2023/12/30 04:05:12;;;;;;;4.30;2.13;;;4.90;44.60;;;;;;5052275;28;20488;-71
2023/12/30 04:07:38;;;;;;;3.50;2.53;;;4.90;55.90;;;;;;5052883;28;20424;-66
2023/12/30 04:10:04;;;;;;;6.77;2.30;;;4.90;63.10;;;;;;5065106;28;20483;-66
2023/12/30 04:12:32;;;;;;;13.87;2.70;;;4.90;68.80;;;;;;5072245;28;20185;-70
2023/12/30 04:14:58;;;;;;;5.40;2.97;;;5.00;77.40;;;;;;5072295;28;20424;-67
2023/12/30 04:17:23;;;;;;;4.10;1.57;;;5.00;77.40;;;;;;5072924;28;20452;-69
2023/12/30 04:19:49;;;;;;;10.07;2.43;;;5.00;77.40;;;;;;5073023;28;20170;-70
2023/12/30 04:22:15;;;;;;;4.23;2.20;;;5.00;81.90;;;;;;5070337;28;20206;-67
2023/12/30 04:24:40;;;;;;;8.50;2.73;;;5.00;84.80;;;;;;5050603;28;20174;-67
2023/12/30 04:27:06;;;;;;;4.30;3.03;;;5.00;90.60;;;;;;5052807;28;20206;-67
2023/12/30 04:29:32;;;;;;;2.40;2.20;;;5.10;94.40;;;;;;5052426;28;20681;-67
2023/12/30 04:31:57;;;;;;;26.83;3.30;;;5.10;92.30;;;;;;5057006;28;20171;-71
2023/12/30 04:34:23;;;;;;;4.13;3.70;;;5.00;83.80;;;;;;5055688;28;20666;-74
2023/12/30 04:36:48;;;;;;;10.80;2.57;;;5.00;91.90;;;;;;5056526;28;20165;-67
2023/12/30 04:39:14;;;;;;;2.17;1.97;;;5.00;97.30;;;;;;5074037;28;20272;-70
2023/12/30 04:41:40;;;;;;;4.47;2.17;;;5.00;99.90;;;;;;5056840;28;20236;-67
2023/12/30 04:44:06;;;;;;;9.70;2.73;;;5.10;99.90;;;;;;5056853;28;20173;-67
2023/12/30 04:46:32;;;;;;;6.63;2.63;;;5.00;99.90;;;;;;5055025;28;20424;-70
2023/12/30 04:49:01;;;;;;;7.73;3.00;;;5.00;99.90;;;;;;5056258;28;20263;-69
2023/12/30 04:51:27;;;;;;;9.67;3.57;;;5.00;99.90;;;;;;5056499;28;20575;-68
2023/12/30 04:53:52;;;;;;;5.37;2.30;;;5.00;99.90;;;;;;5055040;28;20401;-68
2023/12/30 04:56:18;;;;;;;1.60;1.50;;;5.00;99.90;;;;;;5053941;28;20716;-71
2023/12/30 04:58:44;;;;;;;8.87;2.50;;;5.10;99.90;;;;;;5056216;28;20183;-67
2023/12/30 05:01:11;;;;;;;4.37;3.37;;;5.10;99.90;;;;;;5055340;28;20178;-71
2023/12/30 05:03:37;;;;;;;5.50;2.77;;;5.10;99.90;;;;;;5056044;28;20166;-67
2023/12/30 05:06:03;;;;;;;5.57;2.10;;;5.10;99.90;;;;;;5053847;28;20423;-70
2023/12/30 05:08:29;;;;;;;4.20;2.90;;;5.20;99.90;;;;;;5057445;28;20427;-70
2023/12/30 05:10:55;;;;;;;10.70;2.50;;;5.20;99.90;;;;;;5074803;28;20198;-70
2023/12/30 05:13:21;;;;;;;6.03;3.20;;;5.20;99.90;;;;;;5076169;28;20454;-68
2023/12/30 05:15:49;;;;;;;9.13;3.00;;;5.30;99.90;;;;;;5075289;28;20400;-70
2023/12/30 05:18:15;;;;;;;3.00;2.80;;;5.30;99.90;;;;;;5073854;28;20768;-70
2023/12/30 05:20:41;;;;;;;8.37;2.80;;;5.30;99.90;;;;;;5055710;28;20413;-71
2023/12/30 05:23:07;;;;;;;4.77;2.70;;;5.40;99.90;;;;;;5055407;28;20838;-68
2023/12/30 05:25:33;;;;;;;6.93;2.87;;;5.40;99.90;;;;;;5071222;28;20281;-68
2023/12/30 05:27:58;;;;;;;4.90;2.80;;;5.40;99.90;;;;;;5075497;28;20190;-72
2023/12/30 05:30:24;;;;;;;5.70;2.90;;;5.40;99.90;;;;;;5075838;28;20485;-71
2023/12/30 05:32:50;;;;;;;5.73;3.17;;;5.40;99.90;;;;;;5075751;28;20165;-72
2023/12/30 05:35:16;;;;;;;12.97;2.83;;;5.40;99.90;;;;;;5074899;28;20428;-69
2023/12/30 05:37:42;;;;;;;6.70;3.50;;;5.40;99.90;;;;;;5075574;28;20182;-71
2023/12/30 05:40:09;;;;;;;11.30;3.47;;;5.40;99.90;;;;;;5074665;28;20466;-71
2023/12/30 05:42:35;;;;;;;5.33;2.30;;;5.40;99.90;;;;;;5072870;28;20264;-71
2023/12/30 05:45:00;;;;;;;6.10;2.53;;;5.40;99.90;;;;;;5054239;28;20501;-70
2023/12/30 05:47:26;;;;;;;7.70;2.60;;;5.40;99.90;;;;;;5055177;28;20273;-71
2023/12/30 05:49:52;;;;;;;4.90;3.73;;;5.40;99.90;;;;;;5055520;28;20286;-71
2023/12/30 05:52:17;;;;;;;8.50;3.43;;;5.40;99.90;;;;;;5055309;28;20174;-71
2023/12/30 05:54:46;;;;;;;8.70;2.60;;;5.40;99.90;;;;;;5064242;28;20201;-72
2023/12/30 05:57:12;;;;;;;6.60;2.87;;;5.50;99.90;;;;;;5075073;28;20170;-72
2023/12/30 05:59:38;;;;;;;4.33;1.90;;;5.40;99.90;;;;;;5074985;28;20461;-69
2023/12/30 06:02:05;;;;;;;6.90;2.77;;;5.40;99.90;;;;;;5075301;28;20182;-69
2023/12/30 06:04:30;;;;;;;4.07;2.80;;;5.40;99.90;;;;;;5074555;28;20411;-77
2023/12/30 06:06:56;;;;;;;12.57;3.20;;;5.40;99.90;;;;;;5074617;28;20413;-70
2023/12/30 06:09:22;;;;;;;11.13;3.00;;;5.50;99.90;;;;;;5073938;28;20292;-71
2023/12/30 06:11:48;;;;;;;6.73;2.33;;;5.50;99.90;;;;;;5075025;28;20568;-71
2023/12/30 06:14:14;;;;;;;3.73;2.47;;;5.60;99.90;;;;;;5075108;28;20169;-70
2023/12/30 06:16:40;;;;;;;3.40;2.27;;;5.60;99.90;;;;;;5074048;28;20792;-71
2023/12/30 06:19:06;;;;;;;10.17;3.17;;;5.60;99.90;;;;;;5074517;28;20420;-71
2023/12/30 06:21:31;;;;;;;8.83;2.43;;;5.60;99.90;;;;;;5074603;28;20645;-73
2023/12/30 06:23:57;;;;;;;8.40;2.53;;;5.60;99.90;;;;;;5073364;28;20209;-72
2023/12/30 06:26:22;;;;;;;8.20;2.70;;;5.60;99.90;;;;;;5073773;28;20182;-71
2023/12/30 06:28:49;;;;;;;9.87;2.70;;;5.60;99.90;;;;;;5074670;28;20239;-70
2023/12/30 06:31:15;;;;;;;5.53;2.70;;;5.60;99.90;;;;;;5073234;28;20178;-70
2023/12/30 06:33:40;;;;;;;4.07;2.87;;;5.70;99.90;;;;;;5074204;28;20487;-72
2023/12/30 06:36:07;;;;;;;2.27;2.07;;;5.70;99.90;;;;;;5073559;28;20167;-71
2023/12/30 06:38:33;;;;;;;5.00;2.60;;;5.60;99.90;;;;;;5056440;28;20194;-70
2023/12/30 06:40:58;;;;;;;6.87;2.80;;;5.60;99.90;;;;;;5054524;28;20409;-71
2023/12/30 06:43:24;;;;;;;4.90;2.27;;;5.60;99.90;;;;;;5053962;28;20416;-70
2023/12/30 06:45:50;;;;;;;6.50;2.50;;;5.60;99.90;;;;;;5052282;28;20213;-71
2023/12/30 06:48:18;;;;;;;6.77;2.40;;;5.50;99.90;;;;;;5054343;28;20232;-72
2023/12/30 06:50:45;;;;;;;4.70;2.30;;;5.50;99.90;;;;;;5053910;28;20606;-73
2023/12/30 06:53:11;;;;;;;6.37;2.43;;;5.50;99.90;;;;;;5038844;28;20414;-70
2023/12/30 06:55:37;;;;;;;4.30;2.90;;;5.50;99.90;;;;;;5051122;28;20462;-71
2023/12/30 06:58:03;;;;;;;4.60;3.40;;;5.60;99.90;;;;;;5054087;28;20205;-71
2023/12/30 07:00:29;;;;;;;9.20;2.43;;;5.50;99.90;;;;;;5053661;28;20405;-71
2023/12/30 07:02:55;;;;;;;3.10;2.80;;;5.50;99.90;;;;;;5053968;28;20170;-70
2023/12/30 07:05:20;;;;;;;11.50;2.97;;;5.50;99.90;;;;;;5059419;28;20908;-71
2023/12/30 07:07:46;;;;;;;14.77;3.87;;;5.50;99.90;;;;;;5073306;28;20671;-71
2023/12/30 07:10:12;;;;;;;8.13;3.07;;;5.50;99.90;;;;;;5061991;28;20655;-71
2023/12/30 07:12:38;;;;;;;6.17;2.90;;;5.50;99.90;;;;;;5053773;28;20175;-72
2023/12/30 07:15:04;;;;;;;6.53;3.13;;;5.50;99.90;;;;;;5051743;28;20531;-71
2023/12/30 07:17:30;;;;;;;9.37;2.83;;;5.40;99.90;;;;;;5053632;28;20229;-71
2023/12/30 07:19:56;;;;;;;12.87;3.47;;;5.40;99.90;;;;;;5053278;28;20777;-70
2023/12/30 07:22:22;;;;;;;5.30;2.30;;;5.40;99.90;;;;;;5053751;28;20222;-72
2023/12/30 07:24:48;;;;;;;4.27;2.50;;;5.50;99.90;;;;;;5052194;28;20429;-71
2023/12/30 07:27:14;;;;;;;6.47;2.50;;;5.50;99.90;;;;;;5053027;28;20635;-70
2023/12/30 07:29:40;;;;;;;10.37;2.67;;;5.50;99.90;;;;;;5053444;28;20278;-71
2023/12/30 07:32:06;;;;;;;3.97;2.30;;;5.50;99.90;;;;;;5053361;28;20425;-70
2023/12/30 07:34:32;;;;;;;3.10;2.77;;;5.50;99.90;;;;;;5052419;28;20451;-76
2023/12/30 07:37:01;;;;;;;9.93;2.60;;;5.50;99.90;;;;;;5051905;28;20414;-71
2023/12/30 07:39:27;;;;;;;4.83;3.00;;;5.50;99.90;;;;;;5053801;28;20167;-74
2023/12/30 07:41:53;;;;;;;6.40;2.77;;;5.50;99.90;;;;;;5053503;28;20434;-72
2023/12/30 07:44:19;;;;;;;3.00;2.60;;;5.40;99.90;;;;;;5053362;28;20437;-73
2023/12/30 07:46:45;;;;;;;7.07;2.33;;;5.40;99.90;;;;;;5051676;28;20416;-72
2023/12/30 07:49:10;;;;;;;3.37;2.70;;;5.50;99.90;;;;;;5051627;28;20210;-71
2023/12/30 07:51:36;;;;;;;10.50;3.90;;;5.50;99.90;;;;;;5053237;28;20174;-72
2023/12/30 07:54:02;;;;;;;9.20;2.70;;;5.60;99.90;;;;;;5054879;28;20254;-72
2023/12/30 07:56:27;;;;;;;5.43;2.30;;;5.60;99.90;;;;;;5071361;28;20174;-70
2023/12/30 07:58:53;;;;;;;7.87;2.50;;;5.60;99.90;;;;;;5071807;28;20217;-70
2023/12/30 08:01:19;;;;;;;11.10;3.13;;;5.70;99.90;;;;;;5072215;28;20182;-70
2023/12/30 08:03:44;;;;;;;11.17;2.73;;;5.70;99.90;;;;;;5072062;28;20170;-70
2023/12/30 08:06:10;;;;;;;6.80;2.40;;;5.70;99.90;;;;;;5072056;28;20239;-71
2023/12/30 08:08:36;;;;;;;6.30;2.30;;;5.70;99.90;;;;;;5058081;28;20680;-72
2023/12/30 08:11:02;;;;;;;7.90;2.70;;;5.70;99.90;;;;;;5053715;28;20461;-71
2023/12/30 08:13:27;;;;;;;5.00;2.50;;;5.80;99.90;;;;;;5052662;28;20178;-72
2023/12/30 08:15:53;;;;;;;8.63;2.90;;;5.80;99.90;;;;;;5052181;28;20524;-70
2023/12/30 08:18:19;;;;;;;3.60;2.10;;;5.80;99.90;;;;;;5052717;28;20218;-71
2023/12/30 08:20:45;;;;;;;6.83;3.40;;;5.90;99.90;;;;;;5053037;28;20257;-74
2023/12/30 08:23:10;;;;;;;6.17;3.17;;;5.90;99.90;;;;;;5053178;28;20252;-72
2023/12/30 08:25:36;;;;;;;9.70;4.00;;;5.80;99.90;;;;;;5051437;28;20220;-72
2023/12/30 08:28:02;;;;;;;13.23;4.47;;;5.80;99.90;;;;;;5072270;28;20225;-71
2023/12/30 08:30:27;;;;;;;18.47;3.67;;;5.80;99.90;;;;;;5071200;28;20209;-73
2023/12/30 08:32:53;;;;;;;9.43;3.30;;;5.80;99.90;;;;;;5072834;28;20172;-70
2023/12/30 08:35:19;;;;;;;7.80;3.10;;;5.70;99.90;;;;;;5071987;28;20619;-71
2023/12/30 08:37:44;;;;;;;6.67;3.40;;;5.70;99.90;;;;;;5070666;28;20244;-71
2023/12/30 08:40:11;;;;;;;9.17;3.30;;;5.80;99.90;;;;;;5071923;28;20635;-72
2023/12/30 08:42:37;;;;;;;5.10;2.70;;;5.80;99.90;;;;;;5072173;28;20205;-71
2023/12/30 08:45:07;;;;;;;7.17;3.07;;;5.80;99.90;;;;;;5070483;28;20420;-70
2023/12/30 08:47:34;;;;;;;4.40;3.03;;;5.80;99.90;;;;;;5072649;28;20456;-71
2023/12/30 08:50:00;;;;;;;9.80;3.90;;;5.70;99.90;;;;;;5070944;28;20995;-70
2023/12/30 08:52:26;;;;;;;5.83;4.20;;;5.70;99.90;;;;;;5071011;28;20445;-70
2023/12/30 08:54:52;;;;;;;7.23;3.40;;;5.70;99.90;;;;;;5061023;28;20532;-71
2023/12/30 08:57:18;;;;;;;7.50;3.50;;;5.70;99.90;;;;;;5032566;28;20730;-72
2023/12/30 08:59:43;;;;;;;8.27;3.30;;;5.80;99.90;;;;;;5031172;28;20450;-75
2023/12/30 09:02:09;;;;;;;18.20;4.17;;;5.80;99.90;;;;;;5032455;28;20539;-70
2023/12/30 09:04:35;;;;;;;7.40;2.77;;;5.80;99.90;;;;;;5030571;28;20183;-71
2023/12/30 09:07:00;;;;;;;8.63;3.60;;;5.90;99.90;;;;;;5047022;28;20170;-72
2023/12/30 09:09:26;;;;;;;9.77;4.03;;;5.90;99.90;;;;;;5051770;28;20229;-72
2023/12/30 09:11:52;;;;;;;8.10;2.87;;;5.90;99.90;;;;;;5052178;28;20536;-70
2023/12/30 09:14:18;;;;;;;9.17;3.30;;;5.80;99.90;;;;;;5052482;28;20221;-72
2023/12/30 09:16:44;;;;;;;5.80;3.40;;;5.90;99.90;;;;;;5053655;28;20254;-70
2023/12/30 09:19:10;;;;;;;6.40;3.70;;;5.80;99.90;;;;;;5055540;28;20512;-70
2023/12/30 09:21:35;;;;;;;5.13;2.90;;;5.80;99.90;;;;;;5055925;28;20259;-70
2023/12/30 09:24:02;;;;;;;8.30;3.20;;;5.70;99.90;;;;;;5056698;28;20175;-71
2023/12/30 09:26:28;;;;;;;2.80;2.40;;;5.70;99.90;;;;;;5054526;28;20599;-71
2023/12/30 09:28:53;;;;;;;12.67;4.00;;;5.70;99.90;;;;;;5055608;28;20457;-74
2023/12/30 09:31:24;;;;;;;16.83;3.10;;;5.70;99.90;;;;;;5073238;28;20206;-73
2023/12/30 09:33:50;;;;;;;4.07;2.93;;;5.70;99.90;;;;;;5075772;28;20188;-72
2023/12/30 09:36:17;;;;;;;5.13;3.13;;;5.80;99.90;;;;;;5060079;28;20459;-74
2023/12/30 09:38:43;;;;;;;10.60;3.73;;;5.80;99.90;;;;;;5055031;28;20444;-73
2023/12/30 09:41:09;;;;;;;6.83;3.20;;;5.90;99.90;;;;;;5055583;28;20409;-73
2023/12/30 09:43:36;;;;;;;5.33;2.80;;;6.00;99.90;;;;;;5055466;28;20479;-73
2023/12/30 09:46:03;;;;;;;8.50;3.30;;;5.90;99.90;;;;;;5054384;28;20171;-72
2023/12/30 09:48:30;;;;;;;6.70;3.87;;;5.90;99.90;;;;;;5055496;28;20404;-73
2023/12/30 09:50:56;;;;;;;8.60;3.20;;;6.00;99.90;;;;;;5070029;28;20463;-73
2023/12/30 09:53:23;;;;;;;5.97;3.30;;;6.00;99.90;;;;;;5071164;28;20401;-72
2023/12/30 09:55:51;;;;;;;5.70;3.60;;;6.10;99.90;;;;;;5054532;28;20451;-72
2023/12/30 09:58:21;;;;;;;3.30;2.43;;;6.20;99.90;;;;;;5055149;28;20428;-71
2023/12/30 10:00:47;;;;;;;7.07;3.00;;;6.20;99.90;;;;;;5073171;28;20499;-72
2023/12/30 10:03:14;;;;;;;9.60;2.80;;;6.20;99.90;;;;;;5075062;28;20412;-73
2023/12/30 10:05:41;;;;;;;7.30;2.80;;;6.30;99.90;;;;;;5074020;28;20401;-71
2023/12/30 10:08:07;;;;;;;3.87;2.80;;;6.40;99.90;;;;;;5074595;28;20428;-74
2023/12/30 10:10:43;;;;;;;6.53;3.47;;;6.40;99.90;;;;;;5055374;28;20452;-72
2023/12/30 10:13:10;;;;;;;3.77;2.73;;;6.30;99.90;;;;;;5054939;28;20397;-69
2023/12/30 10:15:37;;;;;;;5.20;3.00;;;6.30;99.90;;;;;;5054219;28;20397;-70
2023/12/30 10:18:04;;;;;;;12.77;3.27;;;6.30;99.90;;;;;;5053421;28;20795;-73
2023/12/30 10:20:30;;;;;;;4.70;3.10;;;6.30;99.90;;;;;;5054983;28;20408;-73
2023/12/30 10:22:56;;;;;;;6.10;2.67;;;6.30;99.90;;;;;;5054727;28;20417;-72
2023/12/30 10:25:22;;;;;;;9.40;2.87;;;6.30;99.90;;;;;;5053186;28;20429;-72
2023/12/30 10:27:48;;;;;;;4.90;2.70;;;6.30;99.90;;;;;;5052167;28;20739;-71
2023/12/30 10:30:19;;;;;;;9.27;2.67;;;6.30;99.90;;;;;;5054372;28;20281;-71
2023/12/30 10:32:46;;;;;;;13.20;2.30;;;6.50;99.90;;;;;;5054662;28;20405;-70
2023/12/30 10:35:13;;;;;;;9.13;2.90;;;6.50;99.90;;;;;;5053760;28;20394;-70
2023/12/30 10:37:40;;;;;;;13.93;4.90;;;6.50;99.90;;;;;;5054287;28;20488;-70
2023/12/30 10:40:11;;;;;;;4.73;3.17;;;6.60;99.90;;;;;;5055336;28;20409;-72
2023/12/30 10:42:39;;;;;;;6.10;2.53;;;6.70;99.90;;;;;;5054095;28;20496;-70
2023/12/30 10:45:06;;;;;;;4.60;3.00;;;6.60;99.90;;;;;;5053657;28;20413;-74
2023/12/30 10:47:42;;;;;;;7.83;2.57;;;6.60;99.90;;;;;;5053643;28;20432;-74
2023/12/30 10:50:09;;;;;;;6.13;3.13;;;6.60;99.90;;;;;;5054179;28;20453;-70
2023/12/30 10:52:42;;;;;;;6.93;3.20;;;6.60;99.90;;;;;;5053806;28;20746;-71
2023/12/30 10:55:09;;;;;;;4.20;2.67;;;6.60;99.90;;;;;;5052999;28;20758;-71
2023/12/30 10:57:37;;;;;;;8.57;2.60;;;6.80;99.90;;;;;;5042343;28;20946;-72
2023/12/30 11:00:09;;;;;;;5.30;2.70;;;6.80;99.90;;;;;;5033822;28;20386;-72
2023/12/30 11:02:38;;;;;;;8.33;3.27;;;6.90;99.90;;;;;;5034274;28;20418;-71
2023/12/30 11:05:07;;;;;;;11.33;3.80;;;6.90;99.90;;;;;;5033392;28;20402;-71
2023/12/30 11:07:34;;;;;;;8.83;3.43;;;6.90;99.90;;;;;;5032502;28;20438;-72
2023/12/30 11:09:59;;;;;;;5.13;2.70;;;6.90;99.90;;;;;;5064373;28;20460;-73
2023/12/30 11:12:30;;;;;;;9.70;4.00;;;6.90;99.90;;;;;;5056937;28;20432;-71
2023/12/30 11:15:00;;;;;;;7.90;3.73;;;6.90;99.90;;;;;;5052896;28;20174;-72
2023/12/30 11:17:35;;;;;;;7.40;3.17;;;7.00;99.90;;;;;;5053342;28;20490;-71
2023/12/30 11:20:26;;;;;;;9.80;2.40;;;7.00;99.90;;;;;;5053691;28;20424;-72
2023/12/30 11:22:53;;;;;;;5.60;2.80;;;7.10;99.90;;;;;;5053853;28;20744;-73
2023/12/30 11:25:19;;;;;;;3.77;2.80;;;7.20;99.90;;;;;;5068062;28;20963;-71
2023/12/30 11:27:53;;;;;;;6.73;5.00;;;7.10;99.90;;;;;;5055440;28;20445;-70
2023/12/30 11:30:25;;;;;;;10.87;3.13;;;7.10;99.90;;;;;;5053514;28;20456;-73
2023/12/30 11:32:54;;;;;;;10.10;4.03;;;7.10;99.90;;;;;;5053546;28;20496;-72
2023/12/30 11:35:20;;;;;;;9.63;3.20;;;7.10;99.90;;;;;;5052394;28;20401;-75
2023/12/30 11:37:52;;;;;;;4.43;2.70;;;7.10;99.90;;;;;;5053243;28;20444;-71
2023/12/30 11:40:19;;;;;;;6.17;2.53;;;7.00;99.90;;;;;;5069874;28;20470;-72
2023/12/30 11:42:45;;;;;;;8.80;2.83;;;6.90;99.90;;;;;;5073552;28;20389;-71
2023/12/30 11:45:11;;;;;;;13.33;3.07;;;6.90;99.90;;;;;;5071987;28;20397;-75
2023/12/30 11:47:37;;;;;;;12.93;3.20;;;6.90;99.90;;;;;;5073186;28;20428;-72
2023/12/30 11:50:09;;;;;;;8.83;3.00;;;6.80;99.90;;;;;;5073164;28;20470;-75
2023/12/30 11:52:39;;;;;;;4.70;2.93;;;6.80;99.90;;;;;;5072856;28;20401;-75
2023/12/30 11:55:05;;;;;;;7.00;4.13;;;6.80;99.90;;;;;;5071480;28;20457;-71
2023/12/30 11:57:33;;;;;;;7.07;2.70;;;6.80;99.90;;;;;;5073297;28;20416;-75
2023/12/30 11:59:58;;;;;;;4.27;3.10;;;6.80;99.90;;;;;;5073215;28;20404;-72
2023/12/30 12:02:25;;;;;;;3.93;3.23;;;6.70;99.90;;;;;;5073037;28;20454;-72
2023/12/30 12:04:50;;;;;;;9.13;3.13;;;6.70;99.90;;;;;;5072006;28;20303;-75
2023/12/30 12:07:16;;;;;;;8.07;2.77;;;6.60;99.90;;;;;;5073055;28;20511;-72
2023/12/30 12:09:43;;;;;;;7.07;2.50;;;6.70;99.90;;;;;;5070643;28;20202;-71
2023/12/30 12:12:11;;;;;;;7.03;2.57;;;6.60;99.90;;;;;;5072482;28;20405;-74
2023/12/30 12:14:37;;;;;;;13.80;3.60;;;6.70;99.90;;;;;;5072244;28;20404;-76
2023/12/30 12:17:05;;;;;;;5.37;2.60;;;6.70;99.90;;;;;;5072923;28;20448;-72
2023/12/30 12:19:30;;;;;;;3.80;2.97;;;6.60;99.90;;;;;;5072912;28;20181;-71
2023/12/30 12:22:00;;;;;;;6.43;3.17;;;6.60;99.90;;;;;;5066605;28;20405;-76
2023/12/30 12:24:26;;;;;;;10.60;2.77;;;6.60;99.90;;;;;;5052767;28;20410;-75
2023/12/30 12:26:55;;;;;;;4.60;2.80;;;6.70;99.90;;;;;;5052035;28;20510;-74
2023/12/30 12:29:21;;;;;;;6.40;2.87;;;6.80;99.90;;;;;;5052415;28;20413;-71
2023/12/30 12:31:46;;;;;;;5.90;2.10;;;6.90;99.90;;;;;;5051802;28;20410;-71
2023/12/30 12:34:20;;;;;;;9.10;2.77;;;6.90;99.90;;;;;;5051782;28;20171;-76
2023/12/30 12:36:46;;;;;;;6.60;3.20;;;7.00;99.90;;;;;;5057826;28;20176;-76
2023/12/30 12:39:11;;;;;;;15.20;3.47;;;7.00;99.90;;;;;;5072618;28;20420;-72
2023/12/30 12:41:40;;;;;;;5.70;2.50;;;7.00;99.90;;;;;;5072610;28;20224;-76
2023/12/30 12:44:05;;;;;;;6.10;2.87;;;7.10;99.90;;;;;;5071450;28;20185;-76
2023/12/30 12:46:31;;;;;;;6.43;2.90;;;7.10;99.90;;;;;;5071826;28;20408;-72
2023/12/30 12:48:59;;;;;;;7.90;2.80;;;7.10;99.90;;;;;;5072231;28;20244;-75
2023/12/30 12:51:26;;;;;;;5.83;3.23;;;7.20;99.90;;;;;;5073341;28;20456;-76
2023/12/30 12:53:52;;;;;;;5.43;3.27;;;7.20;91.80;;;;;;5076704;28;20424;-71